Terminal Aerodrome Forecast
Issued by NWS Binghamton, NY

Home | Current Version | Previous Version | Text Only | Print | Product List | Glossary On
Versions: 1 2 3 4 5 6 7 8 9 10 11 12 13 14 15 16 17 18 19 20 21 22 23 24 25
716
FTUS41 KBGM 161720
TAFBGM
TAF
KBGM 161720Z 1618/1718 27008KT 2SM -SHSN OVC015
      TEMPO 1618/1622 3/4SM -SHSN OVC008
     FM162300 32006KT P6SM SCT060
     FM170700 00000KT P6SM BKN100=

USA.gov is the U.S. government's official web portal to all federal, state and local government web resources and services.